sensor_id;sensor_type;location;lat;lon;timestamp;temperature;humidity
17333;DHT22;8784;50.94667800;7.08448400;2022-10-31T00:00:32;13.70;99.90
17333;DHT22;8784;50.94667800;7.08448400;2022-10-31T00:02:59;13.70;99.90
17333;DHT22;8784;50.94667800;7.08448400;2022-10-31T00:05:26;13.60;99.90
17333;DHT22;8784;50.94667800;7.08448400;2022-10-31T00:07:53;13.60;99.90
17333;DHT22;8784;50.94667800;7.08448400;2022-10-31T00:10:20;13.60;99.90
17333;DHT22;8784;50.94667800;7.08448400;2022-10-31T00:12:47;13.60;99.90
17333;DHT22;8784;50.94667800;7.08448400;2022-10-31T00:15:15;13.60;99.90
17333;DHT22;8784;50.94667800;7.08448400;2022-10-31T00:17:42;13.70;99.90
17333;DHT22;8784;50.94667800;7.08448400;2022-10-31T00:20:10;13.60;99.90
17333;DHT22;8784;50.94667800;7.08448400;2022-10-31T00:22:37;13.60;99.90
17333;DHT22;8784;50.94667800;7.08448400;2022-10-31T00:25:04;13.70;99.90
17333;DHT22;8784;50.94667800;7.08448400;2022-10-31T00:27:33;13.70;99.90
17333;DHT22;8784;50.94667800;7.08448400;2022-10-31T00:30:00;13.80;99.90
17333;DHT22;8784;50.94667800;7.08448400;2022-10-31T00:32:30;13.80;99.90
17333;DHT22;8784;50.94667800;7.08448400;2022-10-31T00:34:57;13.80;99.90
17333;DHT22;8784;50.94667800;7.08448400;2022-10-31T00:37:24;13.80;99.90
17333;DHT22;8784;50.94667800;7.08448400;2022-10-31T00:39:51;13.70;99.90
17333;DHT22;8784;50.94667800;7.08448400;2022-10-31T00:42:18;13.60;99.90
17333;DHT22;8784;50.94667800;7.08448400;2022-10-31T00:44:45;13.60;99.90
17333;DHT22;8784;50.94667800;7.08448400;2022-10-31T00:47:12;13.50;99.90
17333;DHT22;8784;50.94667800;7.08448400;2022-10-31T00:49:40;13.50;99.90
17333;DHT22;8784;50.94667800;7.08448400;2022-10-31T00:52:07;13.50;99.90
17333;DHT22;8784;50.94667800;7.08448400;2022-10-31T00:54:34;13.70;99.90
17333;DHT22;8784;50.94667800;7.08448400;2022-10-31T00:57:01;13.80;99.90
17333;DHT22;8784;50.94667800;7.08448400;2022-10-31T00:59:28;13.80;99.90
17333;DHT22;8784;50.94667800;7.08448400;2022-10-31T01:01:55;13.90;99.90
17333;DHT22;8784;50.94667800;7.08448400;2022-10-31T01:04:23;14.00;99.90
17333;DHT22;8784;50.94667800;7.08448400;2022-10-31T01:06:51;14.00;99.90
17333;DHT22;8784;50.94667800;7.08448400;2022-10-31T01:09:18;14.10;99.90
17333;DHT22;8784;50.94667800;7.08448400;2022-10-31T01:11:45;14.10;99.90
17333;DHT22;8784;50.94667800;7.08448400;2022-10-31T01:14:12;14.10;99.90
17333;DHT22;8784;50.94667800;7.08448400;2022-10-31T01:16:39;14.10;99.90
17333;DHT22;8784;50.94667800;7.08448400;2022-10-31T01:19:06;14.10;99.90
17333;DHT22;8784;50.94667800;7.08448400;2022-10-31T01:21:33;14.00;99.90
17333;DHT22;8784;50.94667800;7.08448400;2022-10-31T01:24:01;14.00;99.90
17333;DHT22;8784;50.94667800;7.08448400;2022-10-31T01:26:30;14.00;99.90
17333;DHT22;8784;50.94667800;7.08448400;2022-10-31T01:29:00;14.00;99.90
17333;DHT22;8784;50.94667800;7.08448400;2022-10-31T01:31:29;14.10;99.90
17333;DHT22;8784;50.94667800;7.08448400;2022-10-31T01:33:57;14.10;99.90
17333;DHT22;8784;50.94667800;7.08448400;2022-10-31T01:36:27;14.10;99.90
17333;DHT22;8784;50.94667800;7.08448400;2022-10-31T01:38:57;14.00;99.90
17333;DHT22;8784;50.94667800;7.08448400;2022-10-31T01:41:28;14.00;99.90
17333;DHT22;8784;50.94667800;7.08448400;2022-10-31T01:43:57;13.90;99.90
17333;DHT22;8784;50.94667800;7.08448400;2022-10-31T01:46:27;13.90;99.90
17333;DHT22;8784;50.94667800;7.08448400;2022-10-31T01:48:55;13.90;99.90
17333;DHT22;8784;50.94667800;7.08448400;2022-10-31T01:51:27;13.80;99.90
17333;DHT22;8784;50.94667800;7.08448400;2022-10-31T01:54:00;13.70;99.90
17333;DHT22;8784;50.94667800;7.08448400;2022-10-31T01:56:30;13.70;99.90
17333;DHT22;8784;50.94667800;7.08448400;2022-10-31T01:58:59;13.60;99.90
17333;DHT22;8784;50.94667800;7.08448400;2022-10-31T02:01:27;13.60;99.90
17333;DHT22;8784;50.94667800;7.08448400;2022-10-31T02:03:55;13.70;99.90
17333;DHT22;8784;50.94667800;7.08448400;2022-10-31T02:06:29;13.70;99.90
17333;DHT22;8784;50.94667800;7.08448400;2022-10-31T02:09:00;13.70;99.90
17333;DHT22;8784;50.94667800;7.08448400;2022-10-31T02:11:31;13.40;99.90
17333;DHT22;8784;50.94667800;7.08448400;2022-10-31T02:14:00;13.70;99.90
17333;DHT22;8784;50.94667800;7.08448400;2022-10-31T02:16:28;13.60;99.90
17333;DHT22;8784;50.94667800;7.08448400;2022-10-31T02:18:56;13.80;99.90
17333;DHT22;8784;50.94667800;7.08448400;2022-10-31T02:21:29;13.80;99.90
17333;DHT22;8784;50.94667800;7.08448400;2022-10-31T02:24:41;13.80;99.90
17333;DHT22;8784;50.94667800;7.08448400;2022-10-31T02:30:09;13.80;99.90
17333;DHT22;8784;50.94667800;7.08448400;2022-10-31T02:32:46;13.80;99.90
17333;DHT22;8784;50.94667800;7.08448400;2022-10-31T02:35:27;13.80;99.90
17333;DHT22;8784;50.94667800;7.08448400;2022-10-31T02:38:04;13.80;99.90
17333;DHT22;8784;50.94667800;7.08448400;2022-10-31T02:40:36;13.70;99.90
17333;DHT22;8784;50.94667800;7.08448400;2022-10-31T02:43:12;13.70;99.90
17333;DHT22;8784;50.94667800;7.08448400;2022-10-31T02:45:45;13.80;99.90
17333;DHT22;8784;50.94667800;7.08448400;2022-10-31T02:48:19;13.70;99.90
17333;DHT22;8784;50.94667800;7.08448400;2022-10-31T02:50:51;13.70;99.90
17333;DHT22;8784;50.94667800;7.08448400;2022-10-31T02:53:20;13.70;99.90
17333;DHT22;8784;50.94667800;7.08448400;2022-10-31T02:55:58;13.70;99.90
17333;DHT22;8784;50.94667800;7.08448400;2022-10-31T02:58:29;13.70;99.90
17333;DHT22;8784;50.94667800;7.08448400;2022-10-31T03:01:35;13.70;99.90
17333;DHT22;8784;50.94667800;7.08448400;2022-10-31T03:07:06;13.70;99.90
17333;DHT22;8784;50.94667800;7.08448400;2022-10-31T03:09:43;13.70;99.90
17333;DHT22;8784;50.94667800;7.08448400;2022-10-31T03:12:14;13.60;99.90
17333;DHT22;8784;50.94667800;7.08448400;2022-10-31T03:14:46;13.60;99.90
17333;DHT22;8784;50.94667800;7.08448400;2022-10-31T03:17:20;13.60;99.90
17333;DHT22;8784;50.94667800;7.08448400;2022-10-31T03:19:53;13.60;99.90
17333;DHT22;8784;50.94667800;7.08448400;2022-10-31T03:22:23;13.60;99.90
17333;DHT22;8784;50.94667800;7.08448400;2022-10-31T03:24:52;13.70;99.90
17333;DHT22;8784;50.94667800;7.08448400;2022-10-31T03:27:23;13.70;99.90
17333;DHT22;8784;50.94667800;7.08448400;2022-10-31T03:29:54;13.60;99.90
17333;DHT22;8784;50.94667800;7.08448400;2022-10-31T03:32:25;13.70;99.90
17333;DHT22;8784;50.94667800;7.08448400;2022-10-31T03:34:57;13.80;99.90
17333;DHT22;8784;50.94667800;7.08448400;2022-10-31T03:37:25;13.80;99.90
17333;DHT22;8784;50.94667800;7.08448400;2022-10-31T03:39:55;13.80;99.90
17333;DHT22;8784;50.94667800;7.08448400;2022-10-31T03:42:25;13.80;99.90
17333;DHT22;8784;50.94667800;7.08448400;2022-10-31T03:44:56;13.70;99.90
17333;DHT22;8784;50.94667800;7.08448400;2022-10-31T03:47:25;13.80;99.90
17333;DHT22;8784;50.94667800;7.08448400;2022-10-31T03:49:52;13.80;99.90
17333;DHT22;8784;50.94667800;7.08448400;2022-10-31T03:52:25;13.80;99.90
17333;DHT22;8784;50.94667800;7.08448400;2022-10-31T03:54:57;13.80;99.90
17333;DHT22;8784;50.94667800;7.08448400;2022-10-31T03:57:29;13.80;99.90
17333;DHT22;8784;50.94667800;7.08448400;2022-10-31T04:00:03;13.80;99.90
17333;DHT22;8784;50.94667800;7.08448400;2022-10-31T04:02:32;13.80;99.90
17333;DHT22;8784;50.94667800;7.08448400;2022-10-31T04:04:59;13.70;99.90
17333;DHT22;8784;50.94667800;7.08448400;2022-10-31T04:07:33;13.70;99.90
17333;DHT22;8784;50.94667800;7.08448400;2022-10-31T04:10:04;13.70;99.90
17333;DHT22;8784;50.94667800;7.08448400;2022-10-31T04:12:33;13.70;99.90
17333;DHT22;8784;50.94667800;7.08448400;2022-10-31T04:15:02;13.70;99.90
17333;DHT22;8784;50.94667800;7.08448400;2022-10-31T04:17:33;13.70;99.90
17333;DHT22;8784;50.94667800;7.08448400;2022-10-31T04:20:02;13.70;99.90
17333;DHT22;8784;50.94667800;7.08448400;2022-10-31T04:22:31;13.60;99.90
17333;DHT22;8784;50.94667800;7.08448400;2022-10-31T04:24:58;13.60;99.90
17333;DHT22;8784;50.94667800;7.08448400;2022-10-31T04:27:25;13.50;99.90
17333;DHT22;8784;50.94667800;7.08448400;2022-10-31T04:29:52;13.50;99.90
17333;DHT22;8784;50.94667800;7.08448400;2022-10-31T04:32:19;13.50;99.90
17333;DHT22;8784;50.94667800;7.08448400;2022-10-31T04:34:46;13.50;99.90
17333;DHT22;8784;50.94667800;7.08448400;2022-10-31T04:37:13;13.50;99.90
17333;DHT22;8784;50.94667800;7.08448400;2022-10-31T04:39:42;13.40;99.90
17333;DHT22;8784;50.94667800;7.08448400;2022-10-31T04:42:09;13.40;99.90
17333;DHT22;8784;50.94667800;7.08448400;2022-10-31T04:44:36;13.40;99.90
17333;DHT22;8784;50.94667800;7.08448400;2022-10-31T04:47:03;13.30;99.90
17333;DHT22;8784;50.94667800;7.08448400;2022-10-31T04:49:30;13.40;99.90
17333;DHT22;8784;50.94667800;7.08448400;2022-10-31T04:51:57;13.30;99.90
17333;DHT22;8784;50.94667800;7.08448400;2022-10-31T04:54:25;13.30;99.90
17333;DHT22;8784;50.94667800;7.08448400;2022-10-31T04:56:53;13.20;99.90
17333;DHT22;8784;50.94667800;7.08448400;2022-10-31T04:59:20;13.10;99.90
17333;DHT22;8784;50.94667800;7.08448400;2022-10-31T05:01:47;13.00;99.90
17333;DHT22;8784;50.94667800;7.08448400;2022-10-31T05:04:14;13.00;99.90
17333;DHT22;8784;50.94667800;7.08448400;2022-10-31T05:06:41;13.10;99.90
17333;DHT22;8784;50.94667800;7.08448400;2022-10-31T05:09:08;13.10;99.90
17333;DHT22;8784;50.94667800;7.08448400;2022-10-31T05:11:35;13.20;99.90
17333;DHT22;8784;50.94667800;7.08448400;2022-10-31T05:14:03;13.30;99.90
17333;DHT22;8784;50.94667800;7.08448400;2022-10-31T05:16:30;13.30;99.90
17333;DHT22;8784;50.94667800;7.08448400;2022-10-31T05:18:57;13.30;99.90
17333;DHT22;8784;50.94667800;7.08448400;2022-10-31T05:21:24;13.30;99.90
17333;DHT22;8784;50.94667800;7.08448400;2022-10-31T05:23:51;13.30;99.90
17333;DHT22;8784;50.94667800;7.08448400;2022-10-31T05:26:19;13.30;99.90
17333;DHT22;8784;50.94667800;7.08448400;2022-10-31T05:28:45;13.20;99.90
17333;DHT22;8784;50.94667800;7.08448400;2022-10-31T05:31:14;13.20;99.90
17333;DHT22;8784;50.94667800;7.08448400;2022-10-31T05:33:41;13.20;99.90
17333;DHT22;8784;50.94667800;7.08448400;2022-10-31T05:36:08;13.10;99.90
17333;DHT22;8784;50.94667800;7.08448400;2022-10-31T05:38:35;13.10;99.90
17333;DHT22;8784;50.94667800;7.08448400;2022-10-31T05:41:02;13.10;99.90
17333;DHT22;8784;50.94667800;7.08448400;2022-10-31T05:43:29;13.10;99.90
17333;DHT22;8784;50.94667800;7.08448400;2022-10-31T05:45:56;13.10;99.90
17333;DHT22;8784;50.94667800;7.08448400;2022-10-31T05:48:25;13.10;99.90
17333;DHT22;8784;50.94667800;7.08448400;2022-10-31T05:50:51;13.00;99.90
17333;DHT22;8784;50.94667800;7.08448400;2022-10-31T05:53:18;13.00;99.90
17333;DHT22;8784;50.94667800;7.08448400;2022-10-31T05:55:46;12.90;99.90
17333;DHT22;8784;50.94667800;7.08448400;2022-10-31T05:58:13;12.90;99.90
17333;DHT22;8784;50.94667800;7.08448400;2022-10-31T06:00:40;12.90;99.90
17333;DHT22;8784;50.94667800;7.08448400;2022-10-31T06:03:08;12.90;99.90
17333;DHT22;8784;50.94667800;7.08448400;2022-10-31T06:05:37;12.90;99.90
17333;DHT22;8784;50.94667800;7.08448400;2022-10-31T06:08:05;12.80;99.90
17333;DHT22;8784;50.94667800;7.08448400;2022-10-31T06:10:32;12.90;99.90
17333;DHT22;8784;50.94667800;7.08448400;2022-10-31T06:12:59;12.80;99.90
17333;DHT22;8784;50.94667800;7.08448400;2022-10-31T06:15:26;12.80;99.90
17333;DHT22;8784;50.94667800;7.08448400;2022-10-31T06:18:00;12.80;99.90
17333;DHT22;8784;50.94667800;7.08448400;2022-10-31T06:20:27;12.80;99.90
17333;DHT22;8784;50.94667800;7.08448400;2022-10-31T06:22:55;12.80;99.90
17333;DHT22;8784;50.94667800;7.08448400;2022-10-31T06:25:22;12.80;99.90
17333;DHT22;8784;50.94667800;7.08448400;2022-10-31T06:27:49;12.80;99.90
17333;DHT22;8784;50.94667800;7.08448400;2022-10-31T06:30:16;12.90;99.90
17333;DHT22;8784;50.94667800;7.08448400;2022-10-31T06:32:44;12.80;99.90
17333;DHT22;8784;50.94667800;7.08448400;2022-10-31T06:35:11;12.80;99.90
17333;DHT22;8784;50.94667800;7.08448400;2022-10-31T06:37:39;12.90;99.90
17333;DHT22;8784;50.94667800;7.08448400;2022-10-31T06:40:08;12.90;99.90
17333;DHT22;8784;50.94667800;7.08448400;2022-10-31T06:42:36;12.80;99.90
17333;DHT22;8784;50.94667800;7.08448400;2022-10-31T06:45:03;12.90;99.90
17333;DHT22;8784;50.94667800;7.08448400;2022-10-31T06:47:30;12.90;99.90
17333;DHT22;8784;50.94667800;7.08448400;2022-10-31T06:49:57;12.90;99.90
17333;DHT22;8784;50.94667800;7.08448400;2022-10-31T06:52:24;12.90;99.90
17333;DHT22;8784;50.94667800;7.08448400;2022-10-31T06:54:51;12.90;99.90
17333;DHT22;8784;50.94667800;7.08448400;2022-10-31T06:57:19;13.00;99.90
17333;DHT22;8784;50.94667800;7.08448400;2022-10-31T06:59:48;13.00;99.90
17333;DHT22;8784;50.94667800;7.08448400;2022-10-31T07:02:15;13.10;99.90
17333;DHT22;8784;50.94667800;7.08448400;2022-10-31T07:04:44;13.10;99.90
17333;DHT22;8784;50.94667800;7.08448400;2022-10-31T07:07:11;13.20;99.90
17333;DHT22;8784;50.94667800;7.08448400;2022-10-31T07:09:38;13.20;99.90
17333;DHT22;8784;50.94667800;7.08448400;2022-10-31T07:12:06;13.30;99.90
17333;DHT22;8784;50.94667800;7.08448400;2022-10-31T07:14:34;13.30;99.90
17333;DHT22;8784;50.94667800;7.08448400;2022-10-31T07:17:01;13.40;99.90
17333;DHT22;8784;50.94667800;7.08448400;2022-10-31T07:19:28;13.40;99.90
17333;DHT22;8784;50.94667800;7.08448400;2022-10-31T07:21:56;13.40;99.90
17333;DHT22;8784;50.94667800;7.08448400;2022-10-31T07:24:26;13.50;99.90
17333;DHT22;8784;50.94667800;7.08448400;2022-10-31T07:26:54;13.60;99.90
17333;DHT22;8784;50.94667800;7.08448400;2022-10-31T07:29:21;13.60;99.90
17333;DHT22;8784;50.94667800;7.08448400;2022-10-31T07:31:51;13.60;99.90
17333;DHT22;8784;50.94667800;7.08448400;2022-10-31T07:34:18;13.70;99.90
17333;DHT22;8784;50.94667800;7.08448400;2022-10-31T07:36:45;13.80;99.90
17333;DHT22;8784;50.94667800;7.08448400;2022-10-31T07:39:12;13.90;99.90
17333;DHT22;8784;50.94667800;7.08448400;2022-10-31T07:41:39;14.00;99.90
17333;DHT22;8784;50.94667800;7.08448400;2022-10-31T07:44:06;14.00;99.90
17333;DHT22;8784;50.94667800;7.08448400;2022-10-31T07:46:33;14.10;99.90
17333;DHT22;8784;50.94667800;7.08448400;2022-10-31T07:49:02;14.10;99.90
17333;DHT22;8784;50.94667800;7.08448400;2022-10-31T07:51:29;14.20;99.90
17333;DHT22;8784;50.94667800;7.08448400;2022-10-31T07:53:56;14.20;99.90
17333;DHT22;8784;50.94667800;7.08448400;2022-10-31T07:56:23;14.20;99.90
17333;DHT22;8784;50.94667800;7.08448400;2022-10-31T07:58:50;14.30;99.90
17333;DHT22;8784;50.94667800;7.08448400;2022-10-31T08:01:17;14.30;99.90
17333;DHT22;8784;50.94667800;7.08448400;2022-10-31T08:03:44;14.40;99.90
17333;DHT22;8784;50.94667800;7.08448400;2022-10-31T08:06:13;14.40;99.90
17333;DHT22;8784;50.94667800;7.08448400;2022-10-31T08:08:40;14.50;99.90
17333;DHT22;8784;50.94667800;7.08448400;2022-10-31T08:11:07;14.60;99.90
17333;DHT22;8784;50.94667800;7.08448400;2022-10-31T08:13:34;14.70;99.90
17333;DHT22;8784;50.94667800;7.08448400;2022-10-31T08:16:01;14.70;99.90
17333;DHT22;8784;50.94667800;7.08448400;2022-10-31T08:18:30;14.80;99.90
17333;DHT22;8784;50.94667800;7.08448400;2022-10-31T08:20:57;14.90;99.90
17333;DHT22;8784;50.94667800;7.08448400;2022-10-31T08:23:26;14.90;99.90
17333;DHT22;8784;50.94667800;7.08448400;2022-10-31T08:25:53;15.00;99.90
17333;DHT22;8784;50.94667800;7.08448400;2022-10-31T08:28:20;15.00;99.90
17333;DHT22;8784;50.94667800;7.08448400;2022-10-31T08:30:47;15.10;99.90
17333;DHT22;8784;50.94667800;7.08448400;2022-10-31T08:33:16;15.00;99.90
17333;DHT22;8784;50.94667800;7.08448400;2022-10-31T08:35:43;14.90;99.90
17333;DHT22;8784;50.94667800;7.08448400;2022-10-31T08:38:12;15.10;99.90
17333;DHT22;8784;50.94667800;7.08448400;2022-10-31T08:40:41;15.10;99.90
17333;DHT22;8784;50.94667800;7.08448400;2022-10-31T08:43:12;15.20;99.90
17333;DHT22;8784;50.94667800;7.08448400;2022-10-31T08:45:39;15.20;99.90
17333;DHT22;8784;50.94667800;7.08448400;2022-10-31T08:48:09;15.20;99.90
17333;DHT22;8784;50.94667800;7.08448400;2022-10-31T08:50:37;15.20;99.90
17333;DHT22;8784;50.94667800;7.08448400;2022-10-31T08:53:06;15.20;99.90
17333;DHT22;8784;50.94667800;7.08448400;2022-10-31T08:55:34;15.20;99.90
17333;DHT22;8784;50.94667800;7.08448400;2022-10-31T08:58:04;15.20;99.90
17333;DHT22;8784;50.94667800;7.08448400;2022-10-31T09:00:33;15.40;99.90
17333;DHT22;8784;50.94667800;7.08448400;2022-10-31T09:03:03;15.50;99.90
17333;DHT22;8784;50.94667800;7.08448400;2022-10-31T09:05:30;15.50;99.90
17333;DHT22;8784;50.94667800;7.08448400;2022-10-31T09:07:59;15.60;99.90
17333;DHT22;8784;50.94667800;7.08448400;2022-10-31T09:10:27;15.60;99.90
17333;DHT22;8784;50.94667800;7.08448400;2022-10-31T09:12:55;15.60;99.90
17333;DHT22;8784;50.94667800;7.08448400;2022-10-31T09:15:24;15.70;99.90
17333;DHT22;8784;50.94667800;7.08448400;2022-10-31T09:17:51;15.70;99.90
17333;DHT22;8784;50.94667800;7.08448400;2022-10-31T09:20:19;15.70;99.90
17333;DHT22;8784;50.94667800;7.08448400;2022-10-31T09:22:46;15.90;99.90
17333;DHT22;8784;50.94667800;7.08448400;2022-10-31T09:25:13;15.80;99.90
17333;DHT22;8784;50.94667800;7.08448400;2022-10-31T09:27:40;15.80;99.90
17333;DHT22;8784;50.94667800;7.08448400;2022-10-31T09:30:08;15.90;99.90
17333;DHT22;8784;50.94667800;7.08448400;2022-10-31T09:32:37;15.90;99.90
17333;DHT22;8784;50.94667800;7.08448400;2022-10-31T09:35:05;16.00;99.90
17333;DHT22;8784;50.94667800;7.08448400;2022-10-31T09:37:32;16.10;99.90
17333;DHT22;8784;50.94667800;7.08448400;2022-10-31T09:39:59;16.30;99.90
17333;DHT22;8784;50.94667800;7.08448400;2022-10-31T09:42:48;16.40;99.90
17333;DHT22;8784;50.94667800;7.08448400;2022-10-31T09:45:21;16.60;99.90
17333;DHT22;8784;50.94667800;7.08448400;2022-10-31T09:48:09;16.80;99.90
17333;DHT22;8784;50.94667800;7.08448400;2022-10-31T09:50:41;17.10;99.90
17333;DHT22;8784;50.94667800;7.08448400;2022-10-31T09:53:19;17.30;99.90
17333;DHT22;8784;50.94667800;7.08448400;2022-10-31T09:55:50;17.60;99.90
17333;DHT22;8784;50.94667800;7.08448400;2022-10-31T09:58:20;17.90;99.90
17333;DHT22;8784;50.94667800;7.08448400;2022-10-31T10:00:50;18.20;99.90
17333;DHT22;8784;50.94667800;7.08448400;2022-10-31T10:03:28;18.40;99.90
17333;DHT22;8784;50.94667800;7.08448400;2022-10-31T10:06:04;18.50;99.90
17333;DHT22;8784;50.94667800;7.08448400;2022-10-31T10:08:34;18.60;99.90
17333;DHT22;8784;50.94667800;7.08448400;2022-10-31T10:11:11;18.70;99.90
17333;DHT22;8784;50.94667800;7.08448400;2022-10-31T10:13:55;18.90;99.90
17333;DHT22;8784;50.94667800;7.08448400;2022-10-31T10:16:35;19.10;99.90
17333;DHT22;8784;50.94667800;7.08448400;2022-10-31T10:19:24;19.10;99.90
17333;DHT22;8784;50.94667800;7.08448400;2022-10-31T10:21:59;19.00;99.90
17333;DHT22;8784;50.94667800;7.08448400;2022-10-31T10:24:44;19.20;99.90
17333;DHT22;8784;50.94667800;7.08448400;2022-10-31T10:27:22;19.30;99.90
17333;DHT22;8784;50.94667800;7.08448400;2022-10-31T10:29:55;19.40;99.90
17333;DHT22;8784;50.94667800;7.08448400;2022-10-31T10:32:27;19.50;99.90
17333;DHT22;8784;50.94667800;7.08448400;2022-10-31T10:35:07;19.60;99.90
17333;DHT22;8784;50.94667800;7.08448400;2022-10-31T10:37:40;19.60;99.90
17333;DHT22;8784;50.94667800;7.08448400;2022-10-31T10:40:13;19.60;99.90
17333;DHT22;8784;50.94667800;7.08448400;2022-10-31T10:42:42;19.60;99.90
17333;DHT22;8784;50.94667800;7.08448400;2022-10-31T10:45:28;19.60;99.90
17333;DHT22;8784;50.94667800;7.08448400;2022-10-31T10:48:17;19.60;99.90
17333;DHT22;8784;50.94667800;7.08448400;2022-10-31T10:50:52;19.70;99.90
17333;DHT22;8784;50.94667800;7.08448400;2022-10-31T10:53:32;19.70;99.90
17333;DHT22;8784;50.94667800;7.08448400;2022-10-31T10:56:11;19.80;99.90
17333;DHT22;8784;50.94667800;7.08448400;2022-10-31T10:58:41;19.90;99.90
17333;DHT22;8784;50.94667800;7.08448400;2022-10-31T11:01:12;20.00;99.90
17333;DHT22;8784;50.94667800;7.08448400;2022-10-31T11:03:40;20.00;99.90
17333;DHT22;8784;50.94667800;7.08448400;2022-10-31T11:06:18;19.90;99.90
17333;DHT22;8784;50.94667800;7.08448400;2022-10-31T11:08:52;20.00;99.90
17333;DHT22;8784;50.94667800;7.08448400;2022-10-31T11:11:24;20.00;99.90
17333;DHT22;8784;50.94667800;7.08448400;2022-10-31T11:13:57;20.10;99.90
17333;DHT22;8784;50.94667800;7.08448400;2022-10-31T11:16:32;20.20;99.90
17333;DHT22;8784;50.94667800;7.08448400;2022-10-31T11:19:08;20.10;99.90
17333;DHT22;8784;50.94667800;7.08448400;2022-10-31T11:21:38;20.10;99.80
17333;DHT22;8784;50.94667800;7.08448400;2022-10-31T11:24:13;20.00;99.90
17333;DHT22;8784;50.94667800;7.08448400;2022-10-31T11:26:42;20.00;99.80
17333;DHT22;8784;50.94667800;7.08448400;2022-10-31T11:29:16;19.90;99.90
17333;DHT22;8784;50.94667800;7.08448400;2022-10-31T11:31:45;19.90;99.90
17333;DHT22;8784;50.94667800;7.08448400;2022-10-31T11:34:19;20.00;99.90
17333;DHT22;8784;50.94667800;7.08448400;2022-10-31T11:36:50;20.10;99.90
17333;DHT22;8784;50.94667800;7.08448400;2022-10-31T11:39:20;20.00;99.80
17333;DHT22;8784;50.94667800;7.08448400;2022-10-31T11:41:48;20.20;99.70
17333;DHT22;8784;50.94667800;7.08448400;2022-10-31T11:44:18;20.00;99.50
17333;DHT22;8784;50.94667800;7.08448400;2022-10-31T11:46:48;20.20;99.40
17333;DHT22;8784;50.94667800;7.08448400;2022-10-31T11:49:18;20.30;99.20
17333;DHT22;8784;50.94667800;7.08448400;2022-10-31T11:51:50;20.30;99.20
17333;DHT22;8784;50.94667800;7.08448400;2022-10-31T11:54:23;20.40;99.10
17333;DHT22;8784;50.94667800;7.08448400;2022-10-31T11:56:50;20.40;99.00
17333;DHT22;8784;50.94667800;7.08448400;2022-10-31T11:59:23;20.40;99.00
17333;DHT22;8784;50.94667800;7.08448400;2022-10-31T12:01:52;20.50;98.90
17333;DHT22;8784;50.94667800;7.08448400;2022-10-31T12:04:30;20.50;98.60
17333;DHT22;8784;50.94667800;7.08448400;2022-10-31T12:06:59;20.50;98.50
17333;DHT22;8784;50.94667800;7.08448400;2022-10-31T12:09:29;20.40;98.60
17333;DHT22;8784;50.94667800;7.08448400;2022-10-31T12:14:55;20.30;98.30
17333;DHT22;8784;50.94667800;7.08448400;2022-10-31T12:17:31;20.30;98.10
17333;DHT22;8784;50.94667800;7.08448400;2022-10-31T12:20:10;20.30;98.20
17333;DHT22;8784;50.94667800;7.08448400;2022-10-31T12:22:51;20.30;98.00
17333;DHT22;8784;50.94667800;7.08448400;2022-10-31T12:25:29;20.20;98.00
17333;DHT22;8784;50.94667800;7.08448400;2022-10-31T12:28:12;20.20;97.90
17333;DHT22;8784;50.94667800;7.08448400;2022-10-31T12:30:50;20.20;97.70
17333;DHT22;8784;50.94667800;7.08448400;2022-10-31T12:33:36;20.20;97.60
17333;DHT22;8784;50.94667800;7.08448400;2022-10-31T12:36:15;20.20;97.50
17333;DHT22;8784;50.94667800;7.08448400;2022-10-31T12:41:50;20.10;97.70
17333;DHT22;8784;50.94667800;7.08448400;2022-10-31T12:44:48;20.20;97.70
17333;DHT22;8784;50.94667800;7.08448400;2022-10-31T12:47:32;20.20;97.60
17333;DHT22;8784;50.94667800;7.08448400;2022-10-31T12:50:17;20.30;97.70
17333;DHT22;8784;50.94667800;7.08448400;2022-10-31T12:52:54;20.40;97.60
17333;DHT22;8784;50.94667800;7.08448400;2022-10-31T12:55:43;20.40;97.60
17333;DHT22;8784;50.94667800;7.08448400;2022-10-31T12:58:19;20.40;97.30
17333;DHT22;8784;50.94667800;7.08448400;2022-10-31T13:00:51;20.40;97.20
17333;DHT22;8784;50.94667800;7.08448400;2022-10-31T13:03:28;20.40;97.10
17333;DHT22;8784;50.94667800;7.08448400;2022-10-31T13:05:59;20.40;97.10
17333;DHT22;8784;50.94667800;7.08448400;2022-10-31T13:08:30;20.40;96.90
17333;DHT22;8784;50.94667800;7.08448400;2022-10-31T13:11:13;20.40;96.90
17333;DHT22;8784;50.94667800;7.08448400;2022-10-31T13:13:48;20.40;96.50
17333;DHT22;8784;50.94667800;7.08448400;2022-10-31T13:16:19;20.30;96.60
17333;DHT22;8784;50.94667800;7.08448400;2022-10-31T13:18:51;20.30;96.70
17333;DHT22;8784;50.94667800;7.08448400;2022-10-31T13:21:23;20.30;96.60
17333;DHT22;8784;50.94667800;7.08448400;2022-10-31T13:23:51;20.30;96.40
17333;DHT22;8784;50.94667800;7.08448400;2022-10-31T13:26:31;20.20;96.60
17333;DHT22;8784;50.94667800;7.08448400;2022-10-31T13:29:04;20.20;96.50
17333;DHT22;8784;50.94667800;7.08448400;2022-10-31T13:31:35;20.20;96.70
17333;DHT22;8784;50.94667800;7.08448400;2022-10-31T13:34:16;20.20;96.50
17333;DHT22;8784;50.94667800;7.08448400;2022-10-31T13:36:50;20.10;96.20
17333;DHT22;8784;50.94667800;7.08448400;2022-10-31T13:39:26;20.10;96.40
17333;DHT22;8784;50.94667800;7.08448400;2022-10-31T13:42:00;20.20;96.60
17333;DHT22;8784;50.94667800;7.08448400;2022-10-31T13:44:29;20.20;96.40
17333;DHT22;8784;50.94667800;7.08448400;2022-10-31T13:46:58;20.20;96.50
17333;DHT22;8784;50.94667800;7.08448400;2022-10-31T13:49:37;20.30;96.50
17333;DHT22;8784;50.94667800;7.08448400;2022-10-31T13:52:16;20.30;96.50
17333;DHT22;8784;50.94667800;7.08448400;2022-10-31T13:54:44;20.40;96.50
17333;DHT22;8784;50.94667800;7.08448400;2022-10-31T13:57:17;20.30;96.50
17333;DHT22;8784;50.94667800;7.08448400;2022-10-31T13:59:50;20.30;96.40
17333;DHT22;8784;50.94667800;7.08448400;2022-10-31T14:02:24;20.30;96.50
17333;DHT22;8784;50.94667800;7.08448400;2022-10-31T14:04:55;20.30;96.50